Bookmark and Share
Track history (hours):
 

Sharp Lady

Last reported at 2014-Apr-02 17:30 UTC. Time now 2014-Apr-21 04:56 UTC.
Position S 34°23' E 017°56'.
Warning: this ship's position is 18 days out of date.

Length 250 m; draft 8.1 m.

Type: Ship (hazmat cat A). MMSI: 235090261.

NotesDate/timePositionNaut miles runAvg speedWind from/ knotsBaromVisibWave heightAir tempDewpointWater temp
2014-Apr-02 17:30S 34°23' E 017°56'1111.2
2014-Apr-02 16:33S 34°30' E 018°05'1111.4
2014-Apr-02 15:33S 34°39' E 018°14'2210.7
2014-Apr-02 13:30S 34°49' E 018°38'1111.1
2014-Apr-02 12:33S 34°51' E 018°50'15710.2
2014-Apr-01 21:10S 34°48' E 022°01'158 8.9
2014-Apr-01 03:24S 34°27' E 025°12'910.4
2014-Apr-01 02:33S 34°25' E 025°22'1110.1
2014-Apr-01 01:28S 34°21' E 025°35'7011.8
2014-Mar-31 19:31S 34°03' E 026°57'3711.9
2014-Mar-31 16:23S 33°45' E 027°36'21912.1
2014-Mar-30 22:12S 31°17' E 030°48'1311.8
2014-Mar-30 21:07S 31°05' E 030°53'2211.6
2014-Mar-30 19:11S 30°44' E 031°02'2111.9
2014-Mar-30 17:27S 30°24' E 031°10'1112.0
2014-Mar-30 16:33S 30°14' E 031°14'1211.7
2014-Mar-30 15:33S 30°03' E 031°18'1010.3
2014-Mar-30 14:33S 29°53' E 031°14'5 5.1
2014-Mar-30 13:33S 29°49' E 031°10'1 1.0
2014-Mar-30 12:33S 29°50' E 031°09'2 2.1
2014-Mar-30 11:30S 29°52' E 031°08'1 0.8
2014-Mar-30 10:33S 29°52' E 031°08'3 2.7
2014-Mar-30 09:33S 29°50' E 031°10'1 0.9
2014-Mar-30 08:33S 29°51' E 031°11'6 5.8
2014-Mar-30 07:32S 29°48' E 031°18'6 6.1
2014-Mar-30 06:33S 29°46' E 031°24'3 2.6
2014-Mar-30 05:33S 29°45' E 031°27'7 6.6
2014-Mar-30 04:33S 29°42' E 031°34'9 9.3
2014-Mar-30 03:33S 29°38' E 031°43'1212.3
2014-Mar-30 02:33S 29°32' E 031°56'1613.4
2014-Mar-30 01:23S 29°29' E 032°13'1012.3
2014-Mar-30 00:34S 29°29' E 032°25'  

Dump ship's entire track history

sailing weather and tide predictions

Sharp Lady — 2EKQ4 — position and weather